Time;durP1;ratioP1;P1;durP2;ratioP2;P2;SDS_P1;SDS_P2;PMS_P1;PMS_P2;Temp;Humidity;BMP_temperature;BMP_pressure;BME280_temperature;BME280_humidity;BME280_pressure;Samples;Min_cycle;Max_cycle;Signal;HPM_P1;HPM_P2
2023/08/05 00:01:13;;;;;;;8.65;7.50;;;;;;;25.43;39.84;93358.16;5045933;28;20032;-74
2023/08/05 00:03:38;;;;;;;10.55;6.97;;;;;;;25.55;39.95;93355.59;5045908;28;20041;-75
2023/08/05 00:06:04;;;;;;;12.55;7.03;;;;;;;25.45;39.89;93353.06;5045916;28;20041;-75
2023/08/05 00:08:29;;;;;;;11.68;6.03;;;;;;;25.40;39.81;93343.44;5044785;28;20466;-75
2023/08/05 00:10:56;;;;;;;8.68;6.40;;;;;;;25.36;40.25;93341.97;5045558;28;21064;-75
2023/08/05 00:13:22;;;;;;;9.73;7.10;;;;;;;25.59;39.79;93353.56;5048167;28;20087;-74
2023/08/05 00:15:49;;;;;;;8.07;6.45;;;;;;;25.59;39.82;93345.38;5046029;28;20028;-74
2023/08/05 00:18:15;;;;;;;7.97;6.97;;;;;;;25.58;39.82;93349.28;5044853;28;20072;-74
2023/08/05 00:20:40;;;;;;;9.05;6.30;;;;;;;25.63;39.79;93323.53;5045817;28;21012;-74
2023/08/05 00:23:06;;;;;;;8.82;6.40;;;;;;;25.59;39.78;93337.22;5046258;28;20511;-75
2023/08/05 00:25:32;;;;;;;8.20;5.90;;;;;;;25.58;39.63;93324.00;5044044;28;20032;-74
2023/08/05 00:27:57;;;;;;;12.68;6.90;;;;;;;25.64;39.79;93344.13;5045635;28;20021;-75
2023/08/05 00:30:23;;;;;;;7.53;6.78;;;;;;;25.48;39.80;93333.94;5044058;28;20067;-74
2023/08/05 00:32:48;;;;;;;8.55;6.57;;;;;;;25.14;40.83;93342.31;5045505;28;20553;-75
2023/08/05 00:35:14;;;;;;;11.57;6.53;;;;;;;25.18;40.53;93331.38;5047018;28;20219;-74
2023/08/05 00:37:39;;;;;;;11.85;6.35;;;;;;;25.37;40.44;93338.81;5048493;28;20041;-75
2023/08/05 00:40:05;;;;;;;12.48;6.80;;;;;;;25.37;40.42;93329.91;5050517;28;20024;-76
2023/08/05 00:42:32;;;;;;;7.97;7.18;;;;;;;25.64;39.68;93331.28;5050609;28;20037;-75
2023/08/05 00:44:57;;;;;;;6.82;6.22;;;;;;;25.74;39.92;93331.47;5047691;28;20033;-75
2023/08/05 00:47:23;;;;;;;11.13;7.93;;;;;;;25.52;40.08;93323.72;5049048;28;20044;-75
2023/08/05 00:49:54;;;;;;;7.18;6.47;;;;;;;25.64;40.16;93328.56;5046398;28;20066;-75
2023/08/05 00:52:23;;;;;;;8.00;7.10;;;;;;;25.68;39.58;93329.25;5051063;28;20410;-74
2023/08/05 00:54:49;;;;;;;11.23;6.13;;;;;;;25.79;39.89;93314.63;5051307;28;20474;-74
2023/08/05 00:57:17;;;;;;;8.38;6.68;;;;;;;25.89;40.06;93325.34;5049163;28;20462;-74
2023/08/05 00:59:43;;;;;;;7.70;6.35;;;;;;;25.84;39.50;93311.41;5049211;28;20036;-75
2023/08/05 01:02:08;;;;;;;7.75;6.65;;;;;;;25.91;39.92;93322.22;5053857;28;20052;-74
2023/08/05 01:04:35;;;;;;;9.50;6.18;;;;;;;25.82;39.38;93309.09;5055543;28;20032;-75
2023/08/05 01:07:01;;;;;;;8.55;6.82;;;;;;;26.03;39.75;93318.81;5049060;28;20112;-74
2023/08/05 01:09:27;;;;;;;7.80;7.00;;;;;;;25.93;39.50;93303.47;5049860;28;20041;-75
2023/08/05 01:11:53;;;;;;;8.80;6.25;;;;;;;25.98;39.69;93306.47;5046973;28;20079;-74
2023/08/05 01:14:18;;;;;;;10.00;6.70;;;;;;;25.85;39.76;93296.63;5049346;28;20082;-75
2023/08/05 01:16:44;;;;;;;7.28;6.63;;;;;;;25.75;39.87;93312.00;5046500;28;20037;-74
2023/08/05 01:19:20;;;;;;;9.38;6.70;;;;;;;25.83;39.70;93315.31;5049445;28;20031;-76
2023/08/05 01:22:03;;;;;;;8.98;6.53;;;;;;;25.83;39.82;93304.44;5068513;28;20044;-75
2023/08/05 01:24:44;;;;;;;8.85;7.47;;;;;;;25.95;40.19;93312.00;5055162;28;20589;-74
2023/08/05 01:27:10;;;;;;;6.68;5.70;;;;;;;25.76;39.83;93299.16;5046797;28;20059;-75
2023/08/05 01:29:36;;;;;;;8.27;7.00;;;;;;;25.87;39.80;93305.13;5047494;28;20546;-74
2023/08/05 01:32:05;;;;;;;10.98;7.75;;;;;;;25.63;40.16;93285.41;5048732;28;20029;-74
2023/08/05 01:34:32;;;;;;;7.50;6.80;;;;;;;25.62;39.86;93275.69;5047662;28;20752;-74
2023/08/05 01:36:57;;;;;;;8.38;6.53;;;;;;;25.57;40.25;93293.28;5040944;28;20054;-75
2023/08/05 01:39:22;;;;;;;6.88;5.97;;;;;;;25.56;40.57;93291.78;5049240;28;20037;-74
2023/08/05 01:41:48;;;;;;;10.98;7.13;;;;;;;25.50;40.29;93287.25;5049226;28;20394;-74
2023/08/05 01:44:13;;;;;;;7.00;6.30;;;;;;;25.47;41.00;93299.72;5047795;28;20387;-75
2023/08/05 01:46:39;;;;;;;7.95;6.22;;;;;;;25.42;40.67;93285.84;5049923;28;20048;-74
2023/08/05 01:49:04;;;;;;;7.20;6.50;;;;;;;25.45;40.52;93296.66;5049502;28;20039;-75
2023/08/05 01:51:30;;;;;;;9.00;7.70;;;;;;;25.45;40.73;93296.66;5050377;28;20032;-74
2023/08/05 01:53:55;;;;;;;7.50;6.65;;;;;;;25.46;40.55;93302.88;5046996;28;20032;-75
2023/08/05 01:56:21;;;;;;;7.57;6.85;;;;;;;25.26;40.61;93295.47;5049147;28;20499;-74
2023/08/05 01:58:47;;;;;;;10.73;7.97;;;;;;;25.22;40.37;93302.16;5046767;28;20070;-75
2023/08/05 02:01:12;;;;;;;9.77;7.82;;;;;;;25.26;40.69;93306.34;5053385;28;20029;-74
2023/08/05 02:03:38;;;;;;;13.27;9.30;;;;;;;25.22;41.62;93318.47;5048339;28;20641;-74
2023/08/05 02:06:03;;;;;;;9.13;7.95;;;;;;;25.14;41.66;93309.66;5047777;28;20036;-74
2023/08/05 02:08:29;;;;;;;10.15;7.18;;;;;;;25.07;42.04;93309.81;5048965;28;20067;-74
2023/08/05 02:10:55;;;;;;;8.90;8.10;;;;;;;25.14;41.64;93309.66;5046352;28;20626;-74
2023/08/05 02:13:20;;;;;;;9.20;8.25;;;;;;;25.06;42.41;93291.97;5047931;28;20041;-76
2023/08/05 02:15:46;;;;;;;10.23;7.97;;;;;;;24.87;41.96;93268.22;5047139;28;20031;-76
2023/08/05 02:18:11;;;;;;;9.55;7.72;;;;;;;24.98;42.57;93297.94;5047802;28;20037;-74
2023/08/05 02:20:37;;;;;;;9.63;8.10;;;;;;;24.94;42.54;93300.72;5047553;28;20396;-75
2023/08/05 02:23:02;;;;;;;9.48;8.43;;;;;;;24.85;42.43;93304.00;5048234;28;20074;-76
2023/08/05 02:25:28;;;;;;;10.60;8.10;;;;;;;24.84;42.89;93305.16;5045752;28;21108;-76
2023/08/05 02:27:53;;;;;;;10.50;8.60;;;;;;;24.77;42.52;93286.28;5049096;28;20505;-73
2023/08/05 02:30:19;;;;;;;9.90;8.75;;;;;;;24.86;42.45;93293.88;5047825;28;20097;-74
2023/08/05 02:32:44;;;;;;;9.45;8.35;;;;;;;24.81;42.73;93308.72;5047567;28;20075;-74
2023/08/05 02:35:10;;;;;;;10.95;8.20;;;;;;;24.70;42.38;93305.38;5048134;28;20037;-73
2023/08/05 02:37:35;;;;;;;8.57;7.68;;;;;;;24.54;43.00;93310.69;5045736;28;20230;-73
2023/08/05 02:40:01;;;;;;;10.45;8.43;;;;;;;24.46;43.27;93312.00;5047491;28;20033;-75
2023/08/05 02:42:26;;;;;;;9.63;8.63;;;;;;;24.31;43.75;93300.59;5045969;28;20135;-75
2023/08/05 02:44:52;;;;;;;8.82;7.90;;;;;;;24.34;43.83;93313.38;5048204;28;20032;-74
2023/08/05 02:47:17;;;;;;;10.13;8.10;;;;;;;24.29;43.57;93313.84;5047824;28;20036;-74
2023/08/05 02:49:43;;;;;;;11.57;8.45;;;;;;;24.27;44.33;93313.47;5047427;28;20178;-74
2023/08/05 02:52:08;;;;;;;11.10;8.70;;;;;;;24.29;43.83;93311.13;5047898;28;20017;-74
2023/08/05 02:54:34;;;;;;;11.35;8.27;;;;;;;24.32;43.92;93309.50;5048720;28;20041;-74
2023/08/05 02:56:59;;;;;;;9.95;8.15;;;;;;;24.23;43.70;93304.59;5047789;28;20515;-74
2023/08/05 02:59:25;;;;;;;11.13;8.27;;;;;;;24.28;43.66;93317.72;5045153;28;20045;-75
2023/08/05 03:01:51;;;;;;;8.68;7.85;;;;;;;24.27;43.26;93301.84;5046753;28;20037;-75
2023/08/05 03:04:16;;;;;;;9.68;8.73;;;;;;;24.22;43.65;93294.16;5046854;28;20044;-73
2023/08/05 03:06:43;;;;;;;11.35;8.55;;;;;;;24.27;43.05;93290.97;5069013;28;20046;-75
2023/08/05 03:09:08;;;;;;;9.27;8.20;;;;;;;24.23;43.44;93290.25;5049295;28;20037;-74
2023/08/05 03:11:34;;;;;;;8.73;7.88;;;;;;;24.13;43.54;93299.34;5048512;28;20049;-75
2023/08/05 03:14:00;;;;;;;9.88;8.32;;;;;;;24.07;44.12;93303.66;5044824;28;20479;-75
2023/08/05 03:16:25;;;;;;;9.18;8.30;;;;;;;23.91;43.57;93286.03;5047174;28;20218;-75
2023/08/05 03:18:51;;;;;;;9.85;8.85;;;;;;;24.03;44.02;93303.72;5047173;28;20418;-76
2023/08/05 03:21:16;;;;;;;25.35;9.23;;;;;;;23.96;44.39;93312.72;5046971;28;20190;-75
2023/08/05 03:23:42;;;;;;;103.95;14.23;;;;;;;23.89;44.63;93304.69;5046304;28;20048;-75
2023/08/05 03:26:07;;;;;;;11.15;8.27;;;;;;;23.89;44.94;93310.13;5045069;28;20076;-74
2023/08/05 03:28:33;;;;;;;10.90;8.63;;;;;;;23.67;44.93;93292.56;5048316;28;20055;-74
2023/08/05 03:30:59;;;;;;;9.93;8.88;;;;;;;23.65;45.34;93294.16;5047193;28;20047;-75
2023/08/05 03:33:24;;;;;;;11.93;8.65;;;;;;;23.62;45.62;93300.41;5046392;28;20399;-74
2023/08/05 03:35:50;;;;;;;14.18;9.63;;;;;;;23.61;45.90;93305.09;5046027;28;20028;-75
2023/08/05 03:38:15;;;;;;;10.13;8.57;;;;;;;23.61;45.44;93307.78;5045609;28;20047;-74
2023/08/05 03:40:41;;;;;;;10.60;8.68;;;;;;;23.50;45.17;93288.16;5046502;28;20044;-73
2023/08/05 03:43:07;;;;;;;9.02;8.18;;;;;;;23.62;45.11;93312.03;5046937;28;20017;-75
2023/08/05 03:45:32;;;;;;;10.93;8.10;;;;;;;23.63;45.33;93313.56;5045145;28;20098;-75
2023/08/05 03:47:58;;;;;;;10.80;9.70;;;;;;;23.59;46.01;93312.84;5044285;28;20040;-75
2023/08/05 03:50:24;;;;;;;10.50;8.65;;;;;;;23.41;45.96;93298.72;5045244;28;20040;-74
2023/08/05 03:52:49;;;;;;;9.48;8.48;;;;;;;23.40;46.51;93295.22;5047008;28;20037;-73
2023/08/05 03:55:16;;;;;;;9.40;8.50;;;;;;;23.48;46.40;93310.25;5051888;28;20033;-74
2023/08/05 03:57:43;;;;;;;10.45;8.75;;;;;;;23.51;46.41;93305.97;5046274;28;20186;-73
2023/08/05 04:00:09;;;;;;;9.90;8.90;;;;;;;23.47;46.87;93305.97;5060982;28;20039;-73
2023/08/05 04:02:36;;;;;;;9.07;8.18;;;;;;;23.38;46.65;93285.94;5045954;28;20474;-75
2023/08/05 04:05:06;;;;;;;10.48;9.48;;;;;;;23.32;46.88;93276.75;5043863;28;20041;-73
2023/08/05 04:07:31;;;;;;;10.52;9.43;;;;;;;23.38;47.31;93280.50;5045310;28;20032;-74
2023/08/05 04:09:57;;;;;;;10.05;8.80;;;;;;;23.44;46.99;93284.31;5046369;28;20083;-75
2023/08/05 04:12:23;;;;;;;11.52;8.73;;;;;;;23.49;47.05;93287.38;5044596;28;20045;-74
2023/08/05 04:14:53;;;;;;;14.80;9.75;;;;;;;23.52;47.21;93285.78;5045875;28;20636;-76
2023/08/05 04:17:20;;;;;;;10.65;9.43;;;;;;;23.62;47.39;93295.75;5046559;28;20047;-75
2023/08/05 04:19:47;;;;;;;10.02;8.95;;;;;;;23.64;47.64;93303.47;5045514;28;21183;-75
2023/08/05 04:22:13;;;;;;;10.50;9.43;;;;;;;23.77;47.10;93299.81;5044499;28;20921;-74
2023/08/05 04:24:41;;;;;;;10.05;8.77;;;;;;;23.74;47.36;93292.50;5045375;28;20499;-75
2023/08/05 04:27:07;;;;;;;10.50;9.32;;;;;;;23.79;47.58;93289.31;5045157;28;20041;-75
2023/08/05 04:29:33;;;;;;;10.85;8.68;;;;;;;23.86;47.68;93283.78;5045020;28;20037;-74
2023/08/05 04:31:59;;;;;;;10.05;9.05;;;;;;;23.96;47.56;93282.84;5046561;28;20563;-74
2023/08/05 04:34:24;;;;;;;9.35;8.30;;;;;;;23.98;47.61;93290.59;5044889;28;20024;-74
2023/08/05 04:36:51;;;;;;;12.25;8.23;;;;;;;24.02;47.53;93292.06;5046901;28;20041;-74
2023/08/05 04:39:21;;;;;;;9.65;8.75;;;;;;;24.27;45.76;93304.53;5044555;28;20040;-74
2023/08/05 04:41:46;;;;;;;9.18;8.27;;;;;;;24.23;46.72;93295.69;5052271;28;20384;-75
2023/08/05 04:44:12;;;;;;;13.55;8.38;;;;;;;24.38;46.29;93299.72;5045429;28;20037;-74
2023/08/05 04:46:38;;;;;;;11.43;8.43;;;;;;;24.35;45.74;93287.72;5046132;28;20522;-75
2023/08/05 04:49:09;;;;;;;10.98;8.98;;;;;;;24.36;45.39;93286.53;5045506;28;20067;-74
2023/08/05 04:51:35;;;;;;;11.55;8.80;;;;;;;24.45;45.07;93302.31;5044784;28;20060;-75
2023/08/05 04:54:01;;;;;;;8.63;7.45;;;;;;;24.39;44.70;93309.41;5047542;28;20549;-74
2023/08/05 04:56:27;;;;;;;38.28;10.35;;;;;;;24.34;45.18;93296.28;5046098;28;20032;-74
2023/08/05 04:58:52;;;;;;;17.08;8.95;;;;;;;24.47;44.84;93308.13;5045624;28;20041;-74
2023/08/05 05:01:18;;;;;;;14.80;9.80;;;;;;;24.66;44.58;93307.41;5043951;28;20085;-74
2023/08/05 05:03:48;;;;;;;10.88;8.23;;;;;;;24.70;44.16;93305.38;5047412;28;20115;-73
2023/08/05 05:06:14;;;;;;;9.07;8.18;;;;;;;24.80;44.12;93299.03;5046619;28;20036;-74
2023/08/05 05:08:42;;;;;;;10.80;8.43;;;;;;;24.89;44.15;93309.34;5044076;28;20070;-74
2023/08/05 05:11:08;;;;;;;10.15;9.05;;;;;;;24.24;44.41;93205.63;5044767;28;20037;-75
2023/08/05 05:13:34;;;;;;;12.77;8.48;;;;;;;25.02;43.33;93310.31;5051020;28;20021;-75
2023/08/05 05:16:02;;;;;;;10.40;7.43;;;;;;;25.04;43.57;93302.47;5046671;28;20399;-75
2023/08/05 05:18:28;;;;;;;10.93;8.60;;;;;;;25.15;44.17;93303.06;5044850;28;20311;-74
2023/08/05 05:20:54;;;;;;;9.10;8.07;;;;;;;25.03;43.29;93278.44;5046374;28;20044;-73
2023/08/05 05:23:20;;;;;;;8.98;7.60;;;;;;;25.39;44.11;93303.78;5045990;28;20547;-74
2023/08/05 05:25:46;;;;;;;10.05;6.88;;;;;;;25.21;43.06;93295.19;5049478;28;20040;-76
2023/08/05 05:28:12;;;;;;;9.13;6.20;;;;;;;25.28;42.26;93303.19;5046547;28;20039;-73
2023/08/05 05:30:38;;;;;;;6.85;6.05;;;;;;;25.40;42.05;93307.28;5049680;28;20029;-74
2023/08/05 05:33:03;;;;;;;13.52;5.65;;;;;;;25.36;42.20;93287.53;5048471;28;20031;-74
2023/08/05 05:35:29;;;;;;;10.15;6.63;;;;;;;25.45;41.96;93304.84;5048521;28;20403;-74
2023/08/05 05:37:55;;;;;;;7.35;6.65;;;;;;;25.20;42.51;93301.78;5054839;28;20628;-76
2023/08/05 05:40:21;;;;;;;9.75;6.88;;;;;;;25.18;42.32;93298.72;5049474;28;20039;-73
2023/08/05 05:42:50;;;;;;;10.93;6.63;;;;;;;25.15;42.92;93294.13;5046454;28;20029;-75
2023/08/05 05:45:16;;;;;;;12.07;6.72;;;;;;;25.14;42.68;93292.56;5049098;28;20029;-74
2023/08/05 05:47:41;;;;;;;11.73;7.80;;;;;;;25.31;42.40;93301.63;5048489;28;20052;-75
2023/08/05 05:50:07;;;;;;;7.68;6.15;;;;;;;25.37;41.87;93303.41;5047417;28;20033;-75
2023/08/05 05:52:34;;;;;;;10.15;7.20;;;;;;;25.49;42.15;93291.91;5047505;28;20033;-75
2023/08/05 05:55:00;;;;;;;15.27;6.57;;;;;;;25.59;41.80;93290.94;5048748;28;20893;-73
2023/08/05 05:57:25;;;;;;;8.25;6.75;;;;;;;25.46;41.86;93292.75;5046050;28;20159;-73
2023/08/05 05:59:51;;;;;;;8.25;6.40;;;;;;;25.49;42.36;93285.69;5049767;28;20035;-74
2023/08/05 06:02:16;;;;;;;8.25;6.25;;;;;;;25.65;42.27;93278.34;5046369;28;20041;-75
2023/08/05 06:04:44;;;;;;;10.13;6.45;;;;;;;25.83;42.11;93290.81;5047718;28;20044;-73
2023/08/05 06:07:09;;;;;;;10.57;6.25;;;;;;;25.65;41.68;93280.31;5049262;28;20070;-76
2023/08/05 06:09:35;;;;;;;6.60;6.00;;;;;;;25.64;41.45;93274.09;5046777;28;20330;-74
2023/08/05 06:12:01;;;;;;;8.60;6.13;;;;;;;25.61;41.16;93288.56;5047514;28;20082;-74
2023/08/05 06:14:30;;;;;;;8.45;5.88;;;;;;;25.58;41.58;93291.34;5045735;28;20117;-74
2023/08/05 06:16:56;;;;;;;12.15;6.85;;;;;;;25.41;42.22;93284.31;5047776;28;20037;-73
2023/08/05 06:19:22;;;;;;;10.40;6.55;;;;;;;25.40;41.95;93280.81;5047526;28;20141;-74
2023/08/05 06:21:47;;;;;;;10.57;6.05;;;;;;;25.47;41.37;93277.19;5048939;28;20035;-73
2023/08/05 06:24:13;;;;;;;6.93;5.70;;;;;;;25.53;41.69;93278.22;5046894;28;20041;-74
2023/08/05 06:26:39;;;;;;;8.10;6.07;;;;;;;25.47;41.80;93277.94;5055169;28;20040;-74
2023/08/05 06:29:04;;;;;;;8.07;7.28;;;;;;;25.37;42.31;93262.59;5045759;28;20033;-76
2023/08/05 06:31:30;;;;;;;11.90;6.72;;;;;;;25.29;42.42;93242.13;5048592;28;20081;-76
2023/08/05 06:33:56;;;;;;;7.07;6.00;;;;;;;25.27;42.50;93258.88;5046976;28;20009;-76
2023/08/05 06:36:22;;;;;;;8.73;6.40;;;;;;;25.32;42.27;93254.19;5048136;28;20037;-75
2023/08/05 06:38:48;;;;;;;12.13;7.40;;;;;;;25.27;41.92;93252.69;5045906;28;20039;-74
2023/08/05 06:41:13;;;;;;;7.15;5.97;;;;;;;25.52;42.09;93252.19;5049410;28;20036;-74
2023/08/05 06:43:39;;;;;;;9.10;7.05;;;;;;;25.52;42.27;93241.28;5047759;28;20041;-74
2023/08/05 06:46:04;;;;;;;10.23;7.60;;;;;;;25.65;42.16;93234.78;5049769;28;20378;-75
2023/08/05 06:48:30;;;;;;;10.05;6.22;;;;;;;25.53;42.08;93231.94;5045515;28;20391;-75
2023/08/05 06:50:56;;;;;;;6.75;6.03;;;;;;;25.87;42.43;93224.16;5047380;28;20039;-75
2023/08/05 06:53:21;;;;;;;7.28;6.57;;;;;;;25.97;41.63;93227.88;5047419;28;20045;-75
2023/08/05 06:55:47;;;;;;;7.15;6.43;;;;;;;26.05;40.69;93230.03;5046059;28;20040;-75
2023/08/05 06:58:12;;;;;;;13.30;6.75;;;;;;;25.87;40.55;93223.41;5053628;28;20028;-76
2023/08/05 07:00:38;;;;;;;7.07;6.45;;;;;;;25.68;41.77;93216.81;5048802;28;20150;-74
2023/08/05 07:03:03;;;;;;;8.70;6.80;;;;;;;25.83;40.87;93206.38;5046546;28;20044;-74
2023/08/05 07:05:29;;;;;;;9.32;6.72;;;;;;;26.26;41.70;93212.38;5047571;28;20037;-75
2023/08/05 07:07:55;;;;;;;19.60;7.63;;;;;;;25.98;40.89;93216.56;5046234;28;20833;-76
2023/08/05 07:10:21;;;;;;;9.32;6.30;;;;;;;26.17;41.41;93206.75;5046960;28;20085;-77
2023/08/05 07:12:46;;;;;;;10.98;6.60;;;;;;;26.14;40.91;93213.06;5045251;28;20040;-76
2023/08/05 07:15:12;;;;;;;8.13;6.97;;;;;;;26.06;41.34;93198.06;5047713;28;20068;-74
2023/08/05 07:17:38;;;;;;;10.32;6.45;;;;;;;26.24;41.22;93214.78;5044992;28;20037;-75
2023/08/05 07:20:05;;;;;;;13.60;7.10;;;;;;;26.40;41.02;93208.50;5048442;28;20041;-76
2023/08/05 07:22:30;;;;;;;8.55;7.53;;;;;;;26.37;40.44;93180.16;5046071;28;20036;-76
2023/08/05 07:24:56;;;;;;;11.18;7.20;;;;;;;26.51;40.88;93206.31;5046556;28;20028;-74
2023/08/05 07:27:22;;;;;;;8.02;7.22;;;;;;;26.45;40.59;93192.41;5044380;28;20056;-75
2023/08/05 07:29:48;;;;;;;8.07;7.35;;;;;;;26.54;40.00;93189.88;5046509;28;20036;-75
2023/08/05 07:32:13;;;;;;;11.52;7.15;;;;;;;26.28;40.79;93195.59;5045167;28;20051;-76
2023/08/05 07:34:40;;;;;;;9.10;7.22;;;;;;;26.08;41.47;93207.38;5047044;28;20052;-77
2023/08/05 07:37:05;;;;;;;8.82;7.28;;;;;;;26.16;41.27;93197.03;5046790;28;20440;-74
2023/08/05 07:39:34;;;;;;;7.78;6.97;;;;;;;26.37;41.53;93188.34;5046078;28;20055;-75
2023/08/05 07:42:05;;;;;;;8.30;7.15;;;;;;;26.36;41.07;93188.75;5044596;28;20037;-75
2023/08/05 07:44:31;;;;;;;10.07;7.45;;;;;;;26.51;40.96;93195.41;5046405;28;20037;-75
2023/08/05 07:47:00;;;;;;;9.77;7.68;;;;;;;26.41;40.53;93169.94;5044207;28;21077;-75
2023/08/05 07:49:26;;;;;;;8.45;6.80;;;;;;;26.65;40.55;93184.13;5046637;28;20122;-75
2023/08/05 07:51:53;;;;;;;8.20;7.40;;;;;;;26.43;40.15;93178.47;5047844;28;20032;-74
2023/08/05 07:54:20;;;;;;;12.00;7.32;;;;;;;26.73;40.73;93187.44;5053047;28;20555;-74
2023/08/05 07:56:46;;;;;;;12.80;7.22;;;;;;;26.85;40.65;93187.50;5045304;28;21108;-75
2023/08/05 07:59:12;;;;;;;8.55;7.45;;;;;;;26.93;39.81;93169.75;5045851;28;20395;-75
2023/08/05 08:01:42;;;;;;;9.25;7.80;;;;;;;27.05;39.83;93179.16;5044559;28;20081;-76
2023/08/05 08:04:14;;;;;;;9.23;7.38;;;;;;;27.10;39.51;93175.91;5048182;28;20585;-76
2023/08/05 08:06:42;;;;;;;7.78;7.05;;;;;;;27.33;40.13;93175.63;5046439;28;20515;-76
2023/08/05 08:09:07;;;;;;;9.95;8.10;;;;;;;27.45;39.78;93178.81;5044292;28;20044;-76
2023/08/05 08:11:33;;;;;;;8.90;7.70;;;;;;;27.50;39.07;93173.56;5046071;28;20044;-75
2023/08/05 08:13:59;;;;;;;8.05;7.30;;;;;;;27.53;38.99;93167.22;5042999;28;20205;-75
2023/08/05 08:16:24;;;;;;;11.35;7.55;;;;;;;27.58;38.67;93166.72;5046166;28;20574;-75
2023/08/05 08:18:50;;;;;;;10.93;7.57;;;;;;;27.33;38.33;93166.66;5045056;28;20031;-75
2023/08/05 08:21:15;;;;;;;9.07;7.45;;;;;;;27.48;38.71;93164.28;5046554;28;20048;-75
2023/08/05 08:23:41;;;;;;;7.65;6.95;;;;;;;27.63;38.46;93171.63;5046249;28;20053;-75
2023/08/05 08:26:07;;;;;;;12.57;8.23;;;;;;;27.66;38.16;93161.81;5046274;28;20741;-76
2023/08/05 08:28:32;;;;;;;8.85;7.88;;;;;;;27.64;38.11;93158.75;5045354;28;20094;-76
2023/08/05 08:30:58;;;;;;;12.57;7.32;;;;;;;27.68;38.36;93146.50;5046947;28;20043;-75
2023/08/05 08:33:25;;;;;;;9.60;7.85;;;;;;;27.78;38.61;93147.38;5048884;28;20708;-75
2023/08/05 08:35:51;;;;;;;9.20;7.75;;;;;;;27.75;37.74;93162.69;5044543;28;20557;-74
2023/08/05 08:38:17;;;;;;;7.57;6.88;;;;;;;27.79;37.49;93159.84;5047785;28;20029;-75
2023/08/05 08:40:51;;;;;;;10.15;7.97;;;;;;;27.39;37.69;93160.22;5044670;28;20534;-76
2023/08/05 08:43:20;;;;;;;8.18;7.47;;;;;;;27.71;38.57;93159.31;5045800;28;20501;-75
2023/08/05 08:45:51;;;;;;;9.45;8.57;;;;;;;27.79;37.73;93166.06;5044912;28;20064;-75
2023/08/05 08:48:17;;;;;;;8.65;7.40;;;;;;;27.64;38.26;93158.75;5043641;28;20446;-76
2023/08/05 08:50:44;;;;;;;9.43;7.75;;;;;;;27.66;37.88;93156.34;5046449;28;20659;-75
2023/08/05 08:53:12;;;;;;;8.32;7.53;;;;;;;27.50;38.43;93148.22;5044145;28;20187;-74
2023/08/05 08:55:40;;;;;;;9.65;7.47;;;;;;;27.45;38.72;93162.41;5046749;28;20040;-76
2023/08/05 08:58:05;;;;;;;10.90;8.10;;;;;;;27.64;39.12;93154.03;5048669;28;20063;-75
2023/08/05 09:00:32;;;;;;;10.70;7.95;;;;;;;27.75;38.73;93140.81;5050840;28;20048;-75
2023/08/05 09:03:03;;;;;;;8.38;7.55;;;;;;;27.67;37.78;93144.19;5047259;28;20028;-74
2023/08/05 09:05:34;;;;;;;13.65;8.60;;;;;;;27.20;38.79;93144.81;5050464;28;20064;-75
2023/08/05 09:08:00;;;;;;;10.13;8.32;;;;;;;27.39;38.62;93149.31;5047978;28;20045;-76
2023/08/05 09:10:25;;;;;;;10.23;7.82;;;;;;;27.47;39.34;93132.72;5049873;28;20029;-74
2023/08/05 09:12:52;;;;;;;10.98;8.20;;;;;;;27.81;38.39;93143.78;5046918;28;20521;-75
2023/08/05 09:15:21;;;;;;;14.13;8.38;;;;;;;27.69;38.03;93141.81;5049463;28;20025;-75
2023/08/05 09:17:46;;;;;;;10.68;7.82;;;;;;;27.62;38.04;93139.31;5054153;28;20072;-75
2023/08/05 09:20:22;;;;;;;13.68;9.57;;;;;;;27.80;39.76;93129.34;5056219;28;20473;-74
2023/08/05 09:23:01;;;;;;;9.60;8.57;;;;;;;27.91;38.44;93123.53;5049266;28;20064;-75
2023/08/05 09:25:31;;;;;;;10.25;7.82;;;;;;;27.92;37.95;93130.50;5053617;28;20024;-75
2023/08/05 09:27:57;;;;;;;10.55;9.18;;;;;;;28.06;38.74;93140.25;5048890;28;20044;-75
2023/08/05 09:30:24;;;;;;;8.77;7.88;;;;;;;27.95;38.21;93132.38;5055417;28;20138;-73
2023/08/05 09:32:51;;;;;;;9.77;8.85;;;;;;;28.08;37.76;93144.06;5047616;28;20042;-74
2023/08/05 09:35:17;;;;;;;9.95;8.23;;;;;;;28.16;37.67;93139.91;5049289;28;20040;-73
2023/08/05 09:37:48;;;;;;;10.63;8.38;;;;;;;28.10;38.22;93130.75;5047609;28;20039;-74
2023/08/05 09:40:16;;;;;;;14.25;8.52;;;;;;;28.14;38.63;93120.47;5047916;28;20044;-75
2023/08/05 09:42:45;;;;;;;10.88;8.25;;;;;;;28.14;38.02;93128.66;5048086;28;20033;-74
2023/08/05 09:45:12;;;;;;;11.63;9.35;;;;;;;28.30;37.88;93121.50;5047795;28;20040;-73
2023/08/05 09:47:38;;;;;;;9.93;8.82;;;;;;;28.13;37.81;93123.63;5055803;28;20036;-74
2023/08/05 09:50:07;;;;;;;11.73;9.00;;;;;;;27.79;38.35;93124.31;5047304;28;20617;-74
2023/08/05 09:52:33;;;;;;;9.90;8.80;;;;;;;27.84;38.34;93123.75;5048313;28;20032;-74
2023/08/05 09:55:18;;;;;;;11.93;9.60;;;;;;;28.11;40.35;93120.56;5050023;28;20480;-74
2023/08/05 09:57:45;;;;;;;13.43;9.35;;;;;;;28.34;37.87;93114.72;5048395;28;20051;-73
2023/08/05 10:00:13;;;;;;;10.35;9.35;;;;;;;27.78;38.59;93111.84;5047942;28;20029;-73
2023/08/05 10:02:44;;;;;;;10.00;8.98;;;;;;;27.74;39.09;93094.81;5046394;28;20154;-75
2023/08/05 10:05:10;;;;;;;10.50;9.52;;;;;;;27.92;38.42;93116.84;5047899;28;20037;-74
2023/08/05 10:07:40;;;;;;;9.57;8.68;;;;;;;28.09;39.96;93104.59;5045642;28;20103;-74
2023/08/05 10:10:09;;;;;;;11.80;8.60;;;;;;;28.24;38.83;93102.94;5048865;28;20047;-74
2023/08/05 10:12:41;;;;;;;9.13;8.23;;;;;;;28.20;38.21;93107.75;5047916;28;20412;-74
2023/08/05 10:15:08;;;;;;;9.52;8.38;;;;;;;28.32;38.52;93103.44;5048858;28;20142;-74
2023/08/05 10:17:38;;;;;;;9.98;8.95;;;;;;;28.29;38.25;93093.41;5048631;28;20045;-74
2023/08/05 10:20:06;;;;;;;12.60;9.15;;;;;;;28.18;38.41;93093.75;5046679;28;20052;-74
2023/08/05 10:22:31;;;;;;;10.90;8.65;;;;;;;28.10;38.57;93108.88;5048492;28;20608;-75
2023/08/05 10:24:59;;;;;;;10.02;8.50;;;;;;;28.24;38.49;93107.63;5046835;28;20017;-74
2023/08/05 10:27:45;;;;;;;19.15;8.88;;;;;;;28.35;38.37;93110.78;5046944;28;20562;-74
2023/08/05 10:30:13;;;;;;;9.98;9.07;;;;;;;28.48;38.04;93105.25;5048570;28;20040;-74
2023/08/05 10:32:56;;;;;;;9.48;8.55;;;;;;;28.58;37.82;93104.09;5046617;28;20045;-74
2023/08/05 10:35:38;;;;;;;10.80;9.70;;;;;;;28.37;38.31;93104.84;5049295;28;20044;-73
2023/08/05 10:38:16;;;;;;;10.90;9.65;;;;;;;28.39;38.68;93097.75;5048269;28;20076;-75
2023/08/05 10:40:45;;;;;;;12.15;9.45;;;;;;;28.37;38.38;93105.63;5046941;28;20547;-74
2023/08/05 10:43:24;;;;;;;10.35;8.50;;;;;;;28.38;38.38;93092.72;5048761;28;20085;-74
2023/08/05 10:45:50;;;;;;;12.63;9.48;;;;;;;28.40;38.18;93065.69;5071435;28;20494;-74
2023/08/05 10:48:15;;;;;;;8.75;7.95;;;;;;;28.45;38.11;93067.84;5051152;28;20033;-73
2023/08/05 10:50:42;;;;;;;10.55;9.38;;;;;;;28.49;38.44;93079.44;5048859;28;20040;-74
2023/08/05 10:53:12;;;;;;;10.95;9.30;;;;;;;28.48;38.37;93084.13;5043976;28;20418;-74
2023/08/05 10:55:56;;;;;;;12.70;8.23;;;;;;;28.68;38.25;93064.69;5049974;28;20061;-74
2023/08/05 10:58:24;;;;;;;10.35;9.02;;;;;;;28.75;38.49;93072.63;5045860;28;20033;-73
2023/08/05 11:00:58;;;;;;;10.02;9.02;;;;;;;28.89;38.40;93063.91;5049237;28;20024;-74
2023/08/05 11:03:29;;;;;;;9.82;8.00;;;;;;;28.77;38.09;93051.06;5053336;28;20578;-74
2023/08/05 11:05:59;;;;;;;9.70;8.65;;;;;;;28.97;38.14;93058.94;5044439;28;20045;-74
2023/08/05 11:08:25;;;;;;;9.35;8.45;;;;;;;28.97;38.20;93054.22;5046907;28;20143;-76
2023/08/05 11:10:51;;;;;;;10.10;8.65;;;;;;;29.24;39.21;93042.66;5047915;28;20390;-74
2023/08/05 11:13:17;;;;;;;12.63;10.00;;;;;;;29.37;39.66;93050.78;5047485;28;20041;-74
2023/08/05 11:16:09;;;;;;;10.00;8.98;;;;;;;29.49;37.97;93056.13;5047753;28;20528;-75
2023/08/05 11:18:35;;;;;;;13.45;9.10;;;;;;;29.00;38.22;93009.53;5047181;28;20029;-76
2023/08/05 11:21:03;;;;;;;9.32;8.40;;;;;;;29.13;38.18;93034.09;5047574;28;20498;-73
2023/08/05 11:23:29;;;;;;;8.43;7.68;;;;;;;29.22;37.91;93036.13;5047386;28;20106;-76
2023/08/05 11:25:57;;;;;;;20.67;9.80;;;;;;;29.10;37.38;93029.47;5044419;28;20036;-75
2023/08/05 11:28:23;;;;;;;10.93;8.57;;;;;;;29.31;40.83;93033.41;5048142;28;20051;-76